Newtonhill, United Kingdom
Current Conditions -  °F | °C
As of 2:50 AM on Thursday 27 Nov 2014 (Local Time) from EGPD Reporting Station
Moderate Fog Moderate Fog  
Wind Chill: 43°   Ceiling: 3700
Heat Index: 43°   Visibility: 2.1mi
Dew Point: 41°   Wind: 0mph
Humidity: 93%   Direction: NA
Pressure: 29.74"   Gusts: NA
Location:  57.03°N, 2.15°W
Report Text: EGPD 270250Z 00000KT 3500 BR VCFG SCT007 BKN037 06/05 Q1007
Loading
Personal Weather Stations






























Interactive Weather Map New forecast layout! Learn more

10-Day Weather Forecast

Advertisements
Track Severe Weather on mobile